createdAt,value
2022-12-05T00:00:37.005Z,12.30
2022-12-05T00:05:34.830Z,13.85
2022-12-05T00:10:29.032Z,16.20
2022-12-05T00:15:23.129Z,17.25
2022-12-05T00:20:17.056Z,16.00
2022-12-05T00:25:11.705Z,17.85
2022-12-05T00:30:06.863Z,18.88
2022-12-05T00:35:00.318Z,20.02
2022-12-05T00:39:54.110Z,19.83
2022-12-05T00:44:50.115Z,19.40
2022-12-05T00:49:44.545Z,20.80
2022-12-05T00:54:40.032Z,20.35
2022-12-05T00:59:34.098Z,20.08
2022-12-05T01:04:28.087Z,20.52
2022-12-05T01:09:22.222Z,20.08
2022-12-05T01:14:17.421Z,20.23
2022-12-05T01:19:30.481Z,21.10
2022-12-05T01:24:25.918Z,20.42
2022-12-05T01:29:22.126Z,21.15
2022-12-05T01:34:17.176Z,21.02
2022-12-05T01:39:10.909Z,23.85
2022-12-05T01:44:28.780Z,23.77
2022-12-05T01:49:34.711Z,21.48
2022-12-05T01:54:28.535Z,17.30
2022-12-05T01:59:23.089Z,16.05
2022-12-05T02:04:17.261Z,15.70
2022-12-05T02:09:10.848Z,14.68
2022-12-05T02:19:34.305Z,16.17
2022-12-05T02:24:58.638Z,14.73
2022-12-05T02:30:01.870Z,16.63
2022-12-05T02:35:08.381Z,14.50
2022-12-05T02:40:12.399Z,14.00
2022-12-05T02:45:10.063Z,13.80
2022-12-05T02:50:05.885Z,14.07
2022-12-05T02:54:59.951Z,16.30
2022-12-05T02:59:53.410Z,15.65
2022-12-05T03:04:47.706Z,15.88
2022-12-05T03:09:48.333Z,16.27
2022-12-05T03:15:10.081Z,15.23
2022-12-05T03:20:24.136Z,19.10
2022-12-05T03:25:18.556Z,17.83
2022-12-05T03:30:17.692Z,18.00
2022-12-05T03:35:32.865Z,17.00
2022-12-05T03:40:37.714Z,18.42
2022-12-05T03:45:41.052Z,17.63
2022-12-05T03:50:36.192Z,19.48
2022-12-05T03:55:32.202Z,18.65
2022-12-05T04:00:25.313Z,20.42
2022-12-05T04:05:24.859Z,19.35
2022-12-05T04:10:24.154Z,20.15
2022-12-05T04:15:25.142Z,20.58
2022-12-05T04:20:48.428Z,19.73
2022-12-05T04:26:38.696Z,19.88
2022-12-05T04:31:42.943Z,17.25
2022-12-05T04:36:48.673Z,16.13
2022-12-05T04:41:45.437Z,16.40
2022-12-05T04:46:40.825Z,17.60
2022-12-05T04:51:36.169Z,17.17
2022-12-05T04:56:32.513Z,18.17
2022-12-05T05:01:27.830Z,16.55
2022-12-05T05:06:21.391Z,18.20
2022-12-05T05:11:24.529Z,19.70
2022-12-05T05:16:23.037Z,19.80
2022-12-05T05:21:32.908Z,20.95
2022-12-05T05:26:27.414Z,20.38
2022-12-05T05:31:22.337Z,22.75
2022-12-05T05:36:15.292Z,21.73
2022-12-05T05:41:14.114Z,20.25
2022-12-05T05:46:07.915Z,21.17
2022-12-05T05:51:04.003Z,19.10
2022-12-05T05:55:57.533Z,21.38
2022-12-05T06:00:51.710Z,24.48
2022-12-05T06:05:50.063Z,25.70
2022-12-05T06:10:46.425Z,26.20
2022-12-05T06:20:34.205Z,32.15
2022-12-05T06:25:28.623Z,36.13
2022-12-05T06:30:22.585Z,36.35
2022-12-05T06:40:16.503Z,30.63
2022-12-05T06:45:11.191Z,33.92
2022-12-05T06:50:05.714Z,35.88
2022-12-05T06:55:00.993Z,34.55
2022-12-05T07:00:14.575Z,34.85
2022-12-05T07:05:09.027Z,38.40
2022-12-05T07:10:02.821Z,37.30
2022-12-05T07:14:57.299Z,36.70
2022-12-05T07:19:50.821Z,39.22
2022-12-05T07:24:44.382Z,36.80
2022-12-05T07:29:38.336Z,36.47
2022-12-05T07:39:25.701Z,38.15
2022-12-05T07:44:19.826Z,39.10
2022-12-05T07:49:13.052Z,41.35
2022-12-05T07:54:07.292Z,44.15
2022-12-05T07:59:01.422Z,40.38
2022-12-05T08:03:56.561Z,40.30
2022-12-05T08:08:52.049Z,39.15
2022-12-05T08:13:46.608Z,39.38
2022-12-05T08:18:40.257Z,41.17
2022-12-05T08:23:34.377Z,37.53
2022-12-05T08:28:28.447Z,39.22
2022-12-05T08:33:22.268Z,39.63
2022-12-05T08:38:15.964Z,37.65
2022-12-05T08:43:09.615Z,38.58
2022-12-05T08:48:03.791Z,40.00
2022-12-05T08:52:57.964Z,37.42
2022-12-05T08:57:52.214Z,38.35
2022-12-05T09:02:45.779Z,40.80
2022-12-05T09:07:39.960Z,40.20
2022-12-05T09:12:33.967Z,39.25
2022-12-05T09:17:27.772Z,40.72
2022-12-05T09:22:25.737Z,41.47
2022-12-05T09:27:19.563Z,41.72
2022-12-05T09:32:13.657Z,47.97
2022-12-05T09:37:30.779Z,45.47
2022-12-05T09:42:47.973Z,47.33
2022-12-05T09:47:52.732Z,48.63
2022-12-05T09:53:07.994Z,52.78
2022-12-05T09:58:03.319Z,47.25
2022-12-05T10:03:14.797Z,51.55
2022-12-05T10:08:39.071Z,46.13
2022-12-05T10:14:13.153Z,47.50
2022-12-05T10:24:16.017Z,50.53
2022-12-05T10:29:29.688Z,45.28
2022-12-05T10:34:55.769Z,47.67
2022-12-05T10:39:50.982Z,48.47
2022-12-05T10:44:45.998Z,44.85
2022-12-05T10:49:39.077Z,43.20
2022-12-05T10:54:36.398Z,41.00
2022-12-05T10:59:46.510Z,45.60
2022-12-05T11:04:47.088Z,41.72
2022-12-05T11:09:39.895Z,38.28
2022-12-05T11:14:34.431Z,40.58
2022-12-05T11:19:36.725Z,45.75
2022-12-05T11:24:31.234Z,46.92
2022-12-05T11:29:33.661Z,44.72
2022-12-05T11:34:40.542Z,42.22
2022-12-05T11:39:40.276Z,42.65
2022-12-05T11:44:51.245Z,44.53
2022-12-05T11:50:10.238Z,47.47
2022-12-05T11:55:11.705Z,49.88
2022-12-05T12:00:19.511Z,51.05
2022-12-05T12:05:24.667Z,45.17
2022-12-05T12:10:30.373Z,46.28
2022-12-05T12:15:57.840Z,51.35
2022-12-05T12:21:19.263Z,49.80
2022-12-05T12:26:23.103Z,49.03
2022-12-05T12:36:20.190Z,77.22
2022-12-05T12:41:12.421Z,51.17
2022-12-05T12:46:26.171Z,54.17
2022-12-05T12:51:20.789Z,55.92
2022-12-05T12:56:39.415Z,57.45
2022-12-05T13:01:51.375Z,48.17
2022-12-05T13:06:53.076Z,49.05
2022-12-05T13:11:47.769Z,53.95
2022-12-05T13:16:49.772Z,52.97
2022-12-05T13:21:42.855Z,46.95
2022-12-05T13:26:36.391Z,46.80
2022-12-05T13:31:43.531Z,44.35
2022-12-05T13:37:01.648Z,47.83
2022-12-05T13:42:34.601Z,50.35
2022-12-05T13:47:31.087Z,50.00
2022-12-05T13:52:27.163Z,50.83
2022-12-05T13:57:38.964Z,53.72
2022-12-05T14:02:44.109Z,41.45
2022-12-05T14:07:40.760Z,40.67
2022-12-05T14:12:49.489Z,41.80
2022-12-05T14:17:43.715Z,36.78
2022-12-05T14:22:59.639Z,35.67
2022-12-05T14:28:38.286Z,34.08
2022-12-05T14:33:31.573Z,31.70
2022-12-05T14:38:30.230Z,28.98
2022-12-05T14:43:32.622Z,23.80
2022-12-05T14:48:35.419Z,23.95
2022-12-05T14:53:33.342Z,21.63
2022-12-05T14:58:51.212Z,20.45
2022-12-05T15:04:03.152Z,20.63
2022-12-05T15:09:35.031Z,21.60
2022-12-05T15:14:24.550Z,21.80
2022-12-05T15:19:24.415Z,32.72
2022-12-05T15:24:19.839Z,53.20
2022-12-05T15:29:21.348Z,24.35
2022-12-05T15:34:17.003Z,25.52
2022-12-05T15:39:25.971Z,51.78
2022-12-05T15:44:23.804Z,50.78
2022-12-05T15:49:28.630Z,36.17
2022-12-05T15:54:46.606Z,27.98
2022-12-05T16:00:07.128Z,28.48
2022-12-05T16:05:05.847Z,26.45
2022-12-05T16:10:00.757Z,23.70
2022-12-05T16:14:59.876Z,22.98
2022-12-05T16:19:54.446Z,22.05
2022-12-05T16:24:59.075Z,20.83
2022-12-05T16:30:17.831Z,18.85
2022-12-05T16:35:29.661Z,17.67
2022-12-05T16:40:25.555Z,16.45
2022-12-05T16:45:43.076Z,17.40
2022-12-05T16:50:36.153Z,17.15
2022-12-05T16:55:33.194Z,14.88
2022-12-05T17:00:30.598Z,15.23
2022-12-05T17:05:25.195Z,14.43
2022-12-05T17:10:19.355Z,14.63
2022-12-05T17:15:19.896Z,33.72
2022-12-05T17:20:15.329Z,16.65
2022-12-05T17:25:36.761Z,28.73
2022-12-05T17:30:31.072Z,55.42
2022-12-05T17:35:26.099Z,111.20
2022-12-05T17:40:20.184Z,90.57
2022-12-05T17:45:14.841Z,18.38
2022-12-05T17:50:12.354Z,20.52
2022-12-05T17:55:07.139Z,20.30
2022-12-05T18:00:01.012Z,19.48
2022-12-05T18:04:54.592Z,19.95
2022-12-05T18:09:47.680Z,18.52
2022-12-05T18:14:41.246Z,18.95
2022-12-05T18:24:31.060Z,17.38
2022-12-05T18:29:26.069Z,17.90
2022-12-05T18:34:19.521Z,16.25
2022-12-05T18:44:29.425Z,17.73
2022-12-05T18:49:23.146Z,17.65
2022-12-05T18:54:16.629Z,18.15
2022-12-05T19:04:07.529Z,16.77
2022-12-05T19:09:02.415Z,17.65
2022-12-05T19:13:57.341Z,17.95
2022-12-05T19:18:55.637Z,17.52
2022-12-05T19:23:49.454Z,19.85
2022-12-05T19:28:43.251Z,19.23
2022-12-05T19:33:39.558Z,18.02
2022-12-05T19:38:34.816Z,16.92
2022-12-05T19:43:30.508Z,16.08
2022-12-05T19:48:25.103Z,17.58
2022-12-05T19:53:19.736Z,16.65
2022-12-05T19:58:13.621Z,17.55
2022-12-05T20:03:11.960Z,16.05
2022-12-05T20:08:06.962Z,16.60
2022-12-05T20:13:02.734Z,16.70
2022-12-05T20:17:59.888Z,16.55
2022-12-05T20:22:54.233Z,16.67
2022-12-05T20:27:49.689Z,16.98
2022-12-05T20:32:44.214Z,16.88
2022-12-05T20:37:37.908Z,18.33
2022-12-05T20:42:32.738Z,18.98
2022-12-05T20:47:27.446Z,18.08
2022-12-05T20:52:21.009Z,18.75
2022-12-05T20:57:15.829Z,18.77
2022-12-05T21:02:08.909Z,19.77
2022-12-05T21:07:02.503Z,20.05
2022-12-05T21:11:56.288Z,19.83
2022-12-05T21:16:50.254Z,19.42
2022-12-05T21:21:43.231Z,19.90
2022-12-05T21:31:31.109Z,23.27
2022-12-05T21:36:25.973Z,26.17
2022-12-05T21:41:20.050Z,26.08
2022-12-05T21:46:14.161Z,25.40
2022-12-05T21:51:13.787Z,20.73
2022-12-05T21:56:11.728Z,22.83
2022-12-05T22:01:05.792Z,21.58
2022-12-05T22:06:09.337Z,20.05
2022-12-05T22:11:09.585Z,19.67
2022-12-05T22:16:03.032Z,19.05
2022-12-05T22:21:08.005Z,19.05
2022-12-05T22:26:08.208Z,19.20
2022-12-05T22:31:03.774Z,20.75
2022-12-05T22:36:00.313Z,18.98
2022-12-05T22:40:55.298Z,18.00
2022-12-05T22:45:49.145Z,17.45
2022-12-05T22:50:53.458Z,16.98
2022-12-05T22:55:47.219Z,16.75
2022-12-05T23:00:39.977Z,15.02
2022-12-05T23:05:33.758Z,15.45
2022-12-05T23:10:27.284Z,15.10
2022-12-05T23:20:14.991Z,17.05
2022-12-05T23:25:10.511Z,16.98
2022-12-05T23:30:03.822Z,17.70
2022-12-05T23:34:59.097Z,15.20
2022-12-05T23:39:57.165Z,14.52
2022-12-05T23:44:51.284Z,13.68
2022-12-05T23:49:45.585Z,14.43
2022-12-05T23:54:39.567Z,13.68
2022-12-05T23:59:33.584Z,13.40
